Check out our new BloomSky Weather System.

Active alerts


No alerts


Thunder radar  blitzortung!


Rain radar more information rain snow radar


Visit our other weather sites:

Template documentation
and downloads

And another site



Weather Underground History page Text

Daily Summary for June 6, 2017 Units:  Metric    English   Both
« Previous Day
Next Day »
Daily Weekly Monthly Yearly Custom
  High: Low: Average:
Temperature: 30.9 °C 21.9 °C 25.8 °C
Dew Point: 24.5 °C 21.5 °C 22.8 °C
Humidity: 99 % 62 % 84 %
Wind Speed: 17.7 km/h 0 km/h 4 km/h
Wind Gust: 29 km/h - -
Wind:- - WNW
Pressure: 1009.4 hPa 1006.3 hPa -
Precipitation: 3.56 mm    
Historical Graphs
 
 
Tabular Data for June 6, 2017
Time Temperature Dew Point Pressure Wind Wind Speed Wind Gust Humidity Rainfall Rate (Hourly)
00:00 23 °C 22.2 °C 1007 hPa Calm   1.6 km/h 95 % 0 mm
00:05 23.1 °C 22.3 °C 1007 hPa Calm   1.6 km/h 95 % 0 mm
00:10 23.1 °C 22.3 °C 1007 hPa Calm   1.6 km/h 95 % 0 mm
00:15 23 °C 22.2 °C 1007 hPa Calm   1.6 km/h 95 % 0 mm
00:20 22.9 °C 22.1 °C 1007 hPa Calm     95 % 0 mm
00:25 22.8 °C 22 °C 1007 hPa Calm     95 % 0 mm
00:30 22.8 °C 22 °C 1006.7 hPa Calm     95 % 0 mm
00:35 22.6 °C 21.8 °C 1006.7 hPa Calm     95 % 0 mm
00:40 22.6 °C 21.8 °C 1007 hPa Calm     95 % 0 mm
00:45 22.6 °C 21.8 °C 1007 hPa Calm     95 % 0 mm
00:50 22.6 °C 21.8 °C 1007 hPa Calm     95 % 0 mm
00:55 22.6 °C 21.8 °C 1007 hPa Calm     95 % 0 mm
01:00 22.6 °C 21.8 °C 1007 hPa Calm     95 % 0 mm
01:05 22.5 °C 21.7 °C 1007 hPa Calm     95 % 0 mm
01:10 22.4 °C 21.7 °C 1007 hPa Calm     96 % 0 mm
01:15 22.4 °C 21.7 °C 1007 hPa Calm     96 % 0 mm
01:20 22.4 °C 21.7 °C 1007 hPa Calm     96 % 0 mm
01:25 22.6 °C 22.1 °C 1007 hPa Calm     97 % 0 mm
01:30 22.7 °C 22.2 °C 1007 hPa Calm   1.6 km/h 97 % 0 mm
01:35 22.7 °C 22 °C 1007 hPa Calm   1.6 km/h 96 % 0 mm
01:40 22.7 °C 22 °C 1007 hPa Calm   1.6 km/h 96 % 0 mm
01:45 22.7 °C 22.2 °C 1007 hPa Calm   1.6 km/h 97 % 0 mm
01:50 22.8 °C 22.3 °C 1007 hPa Calm   1.6 km/h 97 % 0 mm
01:55 22.8 °C 22.3 °C 1007 hPa Calm   1.6 km/h 97 % 0 mm
02:00 22.8 °C 22.3 °C 1007 hPa NW 1.6 km/h 3.2 km/h 97 % 0 mm
02:05 22.8 °C 22.3 °C 1007 hPa NW 1.6 km/h 3.2 km/h 97 % 0 mm
02:10 22.8 °C 22.3 °C 1007 hPa Calm   3.2 km/h 97 % 0 mm
02:15 22.7 °C 22.2 °C 1007 hPa Calm   3.2 km/h 97 % 0 mm
02:20 22.7 °C 22.2 °C 1007 hPa Calm   1.6 km/h 97 % 0 mm
02:25 22.6 °C 22.1 °C 1007 hPa Calm   1.6 km/h 97 % 0 mm
02:31 22.6 °C 22.1 °C 1007 hPa Calm   1.6 km/h 97 % 0 mm
02:36 22.5 °C 22 °C 1007 hPa Calm     97 % 0 mm
02:41 22.4 °C 21.9 °C 1007 hPa Calm     97 % 0 mm
02:46 22.4 °C 21.9 °C 1007 hPa Calm     97 % 0 mm
02:51 22.4 °C 21.9 °C 1007 hPa Calm   1.6 km/h 97 % 0 mm
02:56 22.3 °C 21.8 °C 1006.7 hPa Calm   1.6 km/h 97 % 0 mm
03:01 22.3 °C 21.8 °C 1006.7 hPa Calm   1.6 km/h 97 % 0 mm
03:06 22.3 °C 21.8 °C 1006.7 hPa Calm   1.6 km/h 97 % 0 mm
03:11 22.2 °C 21.7 °C 1006.7 hPa Calm   1.6 km/h 97 % 0 mm
03:16 22.2 °C 21.7 °C 1006.7 hPa Calm   1.6 km/h 97 % 0 mm
03:21 22.2 °C 21.7 °C 1006.7 hPa Calm     97 % 0 mm
03:30 22.2 °C 21.7 °C 1006.7 hPa Calm     97 % 0 mm
03:31 22.1 °C 21.6 °C 1006.7 hPa Calm     97 % 0 mm
03:36 22.1 °C 21.6 °C 1006.7 hPa Calm     97 % 0 mm
03:41 22.1 °C 21.6 °C 1006.7 hPa Calm   1.6 km/h 97 % 0 mm
03:46 22.1 °C 21.6 °C 1006.7 hPa Calm   1.6 km/h 97 % 0 mm
03:51 22 °C 21.5 °C 1006.7 hPa Calm   1.6 km/h 97 % 0 mm
03:56 21.9 °C 21.6 °C 1006.7 hPa Calm     98 % 0 mm
04:01 22 °C 21.7 °C 1006.7 hPa Calm     98 % 0 mm
04:06 22 °C 21.7 °C 1006.7 hPa Calm     98 % 0 mm
04:11 22 °C 21.7 °C 1006.7 hPa Calm     98 % 0 mm
04:16 22.1 °C 21.8 °C 1006.7 hPa Calm   1.6 km/h 98 % 0 mm
04:21 22.1 °C 21.8 °C 1006.7 hPa Calm   1.6 km/h 98 % 0 mm
04:26 22.2 °C 21.9 °C 1007 hPa Calm   1.6 km/h 98 % 0 mm
04:31 22.2 °C 21.9 °C 1007 hPa Calm   1.6 km/h 98 % 0 mm
04:36 22.2 °C 21.9 °C 1007 hPa NW 3.2 km/h 3.2 km/h 98 % 0 mm
04:41 22.3 °C 22 °C 1006.7 hPa WNW 1.6 km/h 3.2 km/h 98 % 0 mm
04:46 22.3 °C 22 °C 1006.7 hPa Calm   3.2 km/h 98 % 0 mm
04:51 22.4 °C 22.1 °C 1006.7 hPa NW 1.6 km/h 3.2 km/h 98 % 0 mm
04:56 22.4 °C 22.1 °C 1006.7 hPa Calm   3.2 km/h 98 % 0 mm
05:01 22.4 °C 22.1 °C 1006.7 hPa Calm   3.2 km/h 98 % 0 mm
05:06 22.3 °C 22 °C 1006.7 hPa NW 1.6 km/h 3.2 km/h 98 % 0 mm
05:07 22.4 °C 22.1 °C 1006.7 hPa Calm   3.2 km/h 98 % 0 mm
05:12 22.4 °C 22.1 °C 1006.7 hPa Calm   3.2 km/h 98 % 0 mm
05:32 22.4 °C 22.1 °C 1006.7 hPa Calm   4.8 km/h 98 % 0 mm
05:37 22.4 °C 22.1 °C 1006.7 hPa Calm   3.2 km/h 98 % 0 mm
05:42 22.3 °C 22 °C 1006.7 hPa Calm   3.2 km/h 98 % 0 mm
05:44 22.3 °C 22 °C 1006.7 hPa Calm   3.2 km/h 98 % 0 mm
05:49 22.3 °C 22 °C 1006.7 hPa Calm     98 % 0 mm
05:54 22.3 °C 22 °C 1006.7 hPa Calm   3.2 km/h 98 % 0 mm
05:59 22.3 °C 22 °C 1007 hPa NNW 1.6 km/h 3.2 km/h 98 % 0 mm
06:04 22.3 °C 22 °C 1007 hPa Calm   3.2 km/h 98 % 0 mm
06:09 22.3 °C 22 °C 1007 hPa Calm   4.8 km/h 98 % 0 mm
06:14 22.3 °C 22 °C 1007 hPa Calm   4.8 km/h 98 % 0 mm
06:19 22.3 °C 22 °C 1007 hPa WNW 1.6 km/h 4.8 km/h 98 % 0 mm
06:24 22.3 °C 22 °C 1007.3 hPa Calm   3.2 km/h 98 % 0 mm
06:29 22.3 °C 22 °C 1007.3 hPa Calm   3.2 km/h 98 % 0 mm
06:34 22.2 °C 21.9 °C 1007.3 hPa Calm   3.2 km/h 98 % 0 mm
06:40 22.2 °C 21.9 °C 1007.3 hPa Calm   3.2 km/h 98 % 0 mm
06:45 22.1 °C 21.8 °C 1007.3 hPa Calm     98 % 0 mm
06:50 22.1 °C 21.8 °C 1007.3 hPa Calm     98 % 0 mm
06:54 22.1 °C 21.9 °C 1007.3 hPa Calm     99 % 0 mm
06:59 22.1 °C 21.9 °C 1007.3 hPa Calm   1.6 km/h 99 % 0 mm
07:05 22.2 °C 22 °C 1007.3 hPa NW 3.2 km/h 3.2 km/h 99 % 0 mm
07:10 22.3 °C 22.1 °C 1007.3 hPa NW 1.6 km/h 3.2 km/h 99 % 0 mm
07:15 22.4 °C 22.2 °C 1007.7 hPa Calm   4.8 km/h 99 % 0 mm
07:20 22.6 °C 22.3 °C 1007.7 hPa WNW 1.6 km/h 4.8 km/h 98 % 0 mm
07:25 22.6 °C 22.3 °C 1007.7 hPa NW 3.2 km/h 8 km/h 98 % 0 mm
07:30 22.6 °C 22.3 °C 1007.7 hPa NNW 1.6 km/h 8 km/h 98 % 0 mm
07:35 22.7 °C 22.4 °C 1008 hPa NW 1.6 km/h 8 km/h 98 % 0 mm
07:40 22.9 °C 22.4 °C 1008 hPa Calm   6.4 km/h 97 % 0 mm
07:45 22.9 °C 22.4 °C 1008 hPa WNW 1.6 km/h 8 km/h 97 % 0 mm
07:50 23.1 °C 22.6 °C 1007.7 hPa NNW 4.8 km/h 8 km/h 97 % 0 mm
07:55 23.2 °C 22.5 °C 1007.7 hPa WNW 6.4 km/h 8 km/h 96 % 0 mm
08:00 23.3 °C 22.6 °C 1007.7 hPa NW 3.2 km/h 9.7 km/h 96 % 0 mm
08:05 23.6 °C 22.9 °C 1007.7 hPa WNW 3.2 km/h 9.7 km/h 96 % 0 mm
08:10 23.8 °C 22.8 °C 1007.7 hPa NW 4.8 km/h 9.7 km/h 94 % 0 mm
08:15 23.9 °C 22.9 °C 1007.7 hPa NW 1.6 km/h 8 km/h 94 % 0 mm
08:20 23.9 °C 22.7 °C 1008 hPa NW 3.2 km/h 9.7 km/h 93 % 0 mm
08:25 24.2 °C 22.8 °C 1008 hPa NNW 6.4 km/h 11.3 km/h 92 % 0 mm
08:30 24.4 °C 23 °C 1008 hPa NNW 4.8 km/h 11.3 km/h 92 % 0 mm
08:35 24.6 °C 23 °C 1008 hPa NW 9.7 km/h 11.3 km/h 91 % 0 mm
08:40 24.8 °C 23 °C 1008 hPa NW 8 km/h 11.3 km/h 90 % 0 mm
08:45 25.1 °C 23.3 °C 1008 hPa NW 4.8 km/h 11.3 km/h 90 % 0 mm
08:50 25.3 °C 23.4 °C 1008 hPa NNW 1.6 km/h 9.7 km/h 89 % 0 mm
08:55 25.6 °C 23.5 °C 1008.4 hPa Calm   9.7 km/h 88 % 0 mm
09:00 25.7 °C 23.6 °C 1008 hPa NNW 1.6 km/h 9.7 km/h 88 % 0 mm
09:05 25.8 °C 23.7 °C 1008 hPa NNW 1.6 km/h 8 km/h 88 % 0 mm
09:10 26.1 °C 23.6 °C 1008 hPa NNW 4.8 km/h 6.4 km/h 86 % 0 mm
09:15 26.2 °C 23.9 °C 1008 hPa Calm   6.4 km/h 87 % 0 mm
09:20 26.4 °C 23.5 °C 1008 hPa North 1.6 km/h 8 km/h 84 % 0 mm
09:25 26.8 °C 24.1 °C 1008 hPa NNW 3.2 km/h 8 km/h 85 % 0 mm
09:30 27.1 °C 24 °C 1008 hPa NW 3.2 km/h 11.3 km/h 83 % 0 mm
09:35 27.1 °C 24.2 °C 1008 hPa NW 3.2 km/h 11.3 km/h 84 % 0 mm
09:37 27.2 °C 24.3 °C 1008 hPa NNW 4.8 km/h 11.3 km/h 84 % 0 mm
09:42 27.3 °C 24 °C 1008 hPa NNW 6.4 km/h 11.3 km/h 82 % 0 mm
09:48 27.3 °C 24 °C 1008 hPa NNW 4.8 km/h 12.9 km/h 82 % 0 mm
09:53 27.4 °C 24.3 °C 1008 hPa WNW 4.8 km/h 12.9 km/h 83 % 0 mm
09:57 27.7 °C 24.5 °C 1008 hPa NW 3.2 km/h 12.9 km/h 83 % 0 mm
10:03 27.8 °C 24.4 °C 1008 hPa West 1.6 km/h 12.9 km/h 82 % 0 mm
10:08 28 °C 24.2 °C 1008 hPa NW 6.4 km/h 12.9 km/h 80 % 0 mm
10:13 28.1 °C 24.3 °C 1008 hPa North 6.4 km/h 11.3 km/h 80 % 0 mm
10:18 28.3 °C 23.9 °C 1007.7 hPa NW 8 km/h 11.3 km/h 77 % 0 mm
10:23 28.1 °C 23.7 °C 1007.7 hPa NW 6.4 km/h 17.7 km/h 77 % 0 mm
10:28 28.2 °C 24.2 °C 1007.7 hPa NNW 3.2 km/h 17.7 km/h 79 % 0 mm
10:33 28.6 °C 24.2 °C 1007.7 hPa NW 11.3 km/h 17.7 km/h 77 % 0 mm
10:34 28.5 °C 23.6 °C 1007.7 hPa NW 1.6 km/h 17.7 km/h 75 % 0 mm
10:39 28.1 °C 23.5 °C 1008 hPa WNW 6.4 km/h 12.9 km/h 76 % 0 mm
10:49 28.2 °C 24 °C 1007.7 hPa NW 12.9 km/h 14.5 km/h 78 % 0 mm
10:54 28.3 °C 23.7 °C 1008 hPa NNW 11.3 km/h 16.1 km/h 76 % 0 mm
10:59 28 °C 23.8 °C 1008 hPa NW 17.7 km/h 17.7 km/h 78 % 0 mm
11:04 27.8 °C 23.6 °C 1008 hPa North 6.4 km/h 17.7 km/h 78 % 0 mm
11:09 27.9 °C 23.5 °C 1007.7 hPa WNW 9.7 km/h 25.7 km/h 77 % 0 mm
11:14 27.7 °C 23.7 °C 1008 hPa WNW 9.7 km/h 25.7 km/h 79 % 0 mm
11:20 28.1 °C 23.7 °C 1007.7 hPa WNW 6.4 km/h 25.7 km/h 77 % 0 mm
11:21 28 °C 23.4 °C 1008 hPa NW 9.7 km/h 22.5 km/h 76 % 0 mm
11:26 27.7 °C 23.5 °C 1008 hPa NW 6.4 km/h 22.5 km/h 78 % 0 mm
11:31 27.8 °C 23.4 °C 1008 hPa NW 6.4 km/h 22.5 km/h 77 % 0 mm
11:36 28 °C 23.2 °C 1008 hPa North 8 km/h 22.5 km/h 75 % 0 mm
11:41 28.3 °C 23.7 °C 1008 hPa NNW 6.4 km/h 20.9 km/h 76 % 0 mm
11:46 28.6 °C 23.7 °C 1008 hPa WNW 11.3 km/h 20.9 km/h 75 % 0 mm
11:51 28.2 °C 23.6 °C 1008 hPa North 12.9 km/h 20.9 km/h 76 % 0 mm
11:56 28 °C 23.2 °C 1008 hPa NW 9.7 km/h 19.3 km/h 75 % 0 mm
12:01 28.2 °C 23.6 °C 1008 hPa NW 14.5 km/h 19.3 km/h 76 % 0 mm
12:06 28.1 °C 23 °C 1008 hPa NNW 9.7 km/h 19.3 km/h 74 % 0 mm
12:11 28.3 °C 23.7 °C 1008 hPa WNW 4.8 km/h 19.3 km/h 76 % 0 mm
12:16 28.3 °C 23 °C 1008 hPa NW 16.1 km/h 22.5 km/h 73 % 0 mm
12:21 28.3 °C 23.4 °C 1008 hPa NNW 4.8 km/h 22.5 km/h 75 % 0 mm
12:26 28.5 °C 23 °C 1008 hPa NW 11.3 km/h 22.5 km/h 72 % 0 mm
12:31 28.5 °C 23 °C 1008.4 hPa NW 6.4 km/h 20.9 km/h 72 % 0 mm
12:36 28.4 °C 23.1 °C 1008.4 hPa NW 16.1 km/h 22.5 km/h 73 % 0 mm
12:41 28 °C 22.9 °C 1008.4 hPa NW 17.7 km/h 22.5 km/h 74 % 0 mm
12:46 27.9 °C 23.5 °C 1008 hPa WNW 9.7 km/h 22.5 km/h 77 % 0 mm
12:51 28 °C 23.2 °C 1008 hPa NW 3.2 km/h 22.5 km/h 75 % 0 mm
12:56 27.8 °C 23.4 °C 1008 hPa NW 11.3 km/h 22.5 km/h 77 % 0 mm
13:01 27.5 °C 23.3 °C 1008 hPa NW 9.7 km/h 22.5 km/h 78 % 0 mm
13:06 27.6 °C 23.2 °C 1008 hPa NW 9.7 km/h 22.5 km/h 77 % 0 mm
13:11 27.6 °C 23.2 °C 1008 hPa NW 9.7 km/h 20.9 km/h 77 % 0 mm
13:12 27.7 °C 23.3 °C 1008 hPa NW 11.3 km/h 20.9 km/h 77 % 0 mm
13:17 27.9 °C 23.1 °C 1008 hPa NNW 6.4 km/h 20.9 km/h 75 % 0 mm
13:22 27.9 °C 23.3 °C 1007.7 hPa NW 6.4 km/h 20.9 km/h 76 % 0 mm
13:27 28 °C 23.4 °C 1007.7 hPa WNW 4.8 km/h 17.7 km/h 76 % 0 mm
13:32 28.2 °C 23.3 °C 1007.7 hPa NW 3.2 km/h 17.7 km/h 75 % 0 mm
13:37 28.2 °C 23.1 °C 1007.7 hPa North 9.7 km/h 17.7 km/h 74 % 0 mm
13:42 28.2 °C 23.1 °C 1007.7 hPa WNW 6.4 km/h 24.1 km/h 74 % 0 mm
13:47 28.6 °C 23.1 °C 1007.7 hPa WNW 8 km/h 24.1 km/h 72 % 0 mm
13:52 28.3 °C 22.8 °C 1007.7 hPa NNW 11.3 km/h 24.1 km/h 72 % 0 mm
13:57 28.4 °C 23.1 °C 1007.7 hPa NW 9.7 km/h 20.9 km/h 73 % 0 mm
14:02 28.6 °C 23.1 °C 1007.7 hPa NNW 6.4 km/h 20.9 km/h 72 % 0 mm
14:07 28.7 °C 22.9 °C 1007.3 hPa WNW 6.4 km/h 20.9 km/h 71 % 0 mm
14:12 28.5 °C 22.7 °C 1007.3 hPa NNE 6.4 km/h 17.7 km/h 71 % 0 mm
14:17 28.8 °C 23.2 °C 1007.3 hPa NW 8 km/h 17.7 km/h 72 % 0 mm
14:22 28.8 °C 23 °C 1007.3 hPa NW 11.3 km/h 20.9 km/h 71 % 0 mm
14:27 29.3 °C 23.3 °C 1007.3 hPa WSW 4.8 km/h 20.9 km/h 70 % 0 mm
14:32 29.4 °C 23.1 °C 1007.3 hPa WNW 8 km/h 20.9 km/h 69 % 0 mm
14:37 28.9 °C 22.6 °C 1007.3 hPa NW 14.5 km/h 14.5 km/h 69 % 0 mm
14:42 28.3 °C 22.1 °C 1007.3 hPa NW 9.7 km/h 24.1 km/h 69 % 0 mm
14:47 28 °C 22.7 °C 1007.3 hPa NW 6.4 km/h 24.1 km/h 73 % 0 mm
14:52 28.3 °C 23 °C 1007.3 hPa NNW 6.4 km/h 24.1 km/h 73 % 0 mm
14:57 28.7 °C 22.4 °C 1007.3 hPa NW 8 km/h 22.5 km/h 69 % 0 mm
15:02 29.1 °C 22.8 °C 1007.3 hPa WNW 9.7 km/h 24.1 km/h 69 % 0 mm
15:07 29.4 °C 23.1 °C 1007.3 hPa NW 8 km/h 24.1 km/h 69 % 0 mm
15:12 29.7 °C 23.4 °C 1007 hPa NW 8 km/h 24.1 km/h 69 % 0 mm
15:17 29.9 °C 23.1 °C 1007 hPa WNW 8 km/h 16.1 km/h 67 % 0 mm
15:22 29.7 °C 23.2 °C 1007 hPa NW 4.8 km/h 16.1 km/h 68 % 0 mm
15:27 30.1 °C 23.3 °C 1007 hPa WNW 3.2 km/h 16.1 km/h 67 % 0 mm
15:32 30.3 °C 22.7 °C 1007 hPa WNW 9.7 km/h 16.1 km/h 64 % 0 mm
15:37 30 °C 22.4 °C 1007 hPa WNW 11.3 km/h 24.1 km/h 64 % 0 mm
15:42 29.8 °C 22.8 °C 1007 hPa NNW 4.8 km/h 24.1 km/h 66 % 0 mm
15:48 29.9 °C 22.3 °C 1007 hPa NW 6.4 km/h 24.1 km/h 64 % 0 mm
15:52 30.2 °C 23.1 °C 1007 hPa NNW 8 km/h 16.1 km/h 66 % 0 mm
15:57 30.3 °C 22.7 °C 1007 hPa NNW 1.6 km/h 17.7 km/h 64 % 0 mm
16:03 30.6 °C 22.7 °C 1006.7 hPa NNW 8 km/h 17.7 km/h 63 % 0 mm
16:08 30.5 °C 23.2 °C 1006.7 hPa NW 6.4 km/h 17.7 km/h 65 % 0 mm
16:13 30.7 °C 23.1 °C 1006.7 hPa NNW 9.7 km/h 16.1 km/h 64 % 0 mm
16:18 30.6 °C 23 °C 1006.7 hPa NW 3.2 km/h 24.1 km/h 64 % 0 mm
16:23 30.6 °C 22.5 °C 1006.7 hPa NW 11.3 km/h 24.1 km/h 62 % 0 mm
16:28 30.7 °C 22.8 °C 1006.7 hPa NW 8 km/h 24.1 km/h 63 % 0 mm
16:33 30.8 °C 22.9 °C 1006.7 hPa North 11.3 km/h 20.9 km/h 63 % 0 mm
16:38 30.7 °C 23.1 °C 1006.7 hPa NNW 8 km/h 20.9 km/h 64 % 0 mm
16:43 30.5 °C 22.9 °C 1006.7 hPa NW 11.3 km/h 20.9 km/h 64 % 0 mm
16:48 30.6 °C 22.7 °C 1006.7 hPa NW 12.9 km/h 22.5 km/h 63 % 0 mm
16:53 30.7 °C 22.6 °C 1006.7 hPa NNW 6.4 km/h 24.1 km/h 62 % 0 mm
16:58 30.7 °C 22.8 °C 1006.7 hPa NNW 6.4 km/h 24.1 km/h 63 % 0 mm
17:03 30.9 °C 22.8 °C 1006.7 hPa WNW 8 km/h 24.1 km/h 62 % 0 mm
17:08 30.8 °C 22.7 °C 1006.7 hPa NW 11.3 km/h 17.7 km/h 62 % 0 mm
17:13 30.7 °C 22.6 °C 1006.7 hPa NNW 8 km/h 17.7 km/h 62 % 0 mm
17:18 30.7 °C 23.1 °C 1006.7 hPa WNW 9.7 km/h 22.5 km/h 64 % 0 mm
17:23 30.6 °C 22.7 °C 1006.7 hPa NW 9.7 km/h 22.5 km/h 63 % 0 mm
17:28 30.6 °C 22.7 °C 1006.3 hPa WNW 12.9 km/h 22.5 km/h 63 % 0 mm
17:32 30.7 °C 22.8 °C 1006.7 hPa NW 8 km/h 20.9 km/h 63 % 0 mm
17:37 30.7 °C 22.8 °C 1006.3 hPa NNW 3.2 km/h 20.9 km/h 63 % 0 mm
17:42 30.4 °C 22.8 °C 1006.7 hPa NW 6.4 km/h 20.9 km/h 64 % 0 mm
17:47 30.4 °C 23.1 °C 1006.3 hPa North 6.4 km/h 17.7 km/h 65 % 0 mm
17:52 30.7 °C 23.1 °C 1006.7 hPa WNW 6.4 km/h 16.1 km/h 64 % 0 mm
17:57 30.4 °C 23.1 °C 1006.7 hPa NNW 9.7 km/h 20.9 km/h 65 % 0 mm
18:02 30.2 °C 22.9 °C 1006.7 hPa NNW 9.7 km/h 20.9 km/h 65 % 0 mm
18:07 30.1 °C 23 °C 1006.7 hPa NNW 9.7 km/h 20.9 km/h 66 % 0 mm
18:12 29.9 °C 23.1 °C 1006.7 hPa NNW 6.4 km/h 16.1 km/h 67 % 0 mm
18:17 30.1 °C 23.3 °C 1006.7 hPa WNW 3.2 km/h 16.1 km/h 67 % 0 mm
18:22 30.1 °C 23 °C 1006.3 hPa WNW 11.3 km/h 19.3 km/h 66 % 0 mm
18:27 30.3 °C 23 °C 1006.3 hPa NW 9.7 km/h 19.3 km/h 65 % 0 mm
18:37 30.4 °C 23.1 °C 1006.3 hPa WNW 3.2 km/h 19.3 km/h 65 % 0 mm
19:01 30.4 °C 23.1 °C 1006.7 hPa NW 17.7 km/h 19.3 km/h 65 % 0 mm
19:02 30.4 °C 23.3 °C 1006.7 hPa NNW 8 km/h 19.3 km/h 66 % 0 mm
19:03 30.4 °C 23.1 °C 1006.7 hPa WNW 3.2 km/h 19.3 km/h 65 % 0 mm
19:04 30.3 °C 23.2 °C 1006.7 hPa NNW 6.4 km/h 19.3 km/h 66 % 0 mm
19:05 30.3 °C 23.2 °C 1006.7 hPa NNE 9.7 km/h 19.3 km/h 66 % 0 mm
19:06 30.3 °C 23.2 °C 1006.7 hPa NW 3.2 km/h 20.9 km/h 66 % 0 mm
19:07 30.3 °C 23.2 °C 1006.7 hPa NNW 8 km/h 20.9 km/h 66 % 0 mm
19:08 30.3 °C 23.2 °C 1006.7 hPa North 6.4 km/h 20.9 km/h 66 % 0 mm
19:09 30.3 °C 23.2 °C 1007 hPa West 3.2 km/h 20.9 km/h 66 % 0 mm
19:10 30.3 °C 23.2 °C 1007 hPa NW 4.8 km/h 20.9 km/h 66 % 0 mm
19:11 30.3 °C 23.2 °C 1007 hPa NNE 3.2 km/h 20.9 km/h 66 % 0 mm
19:12 30.2 °C 23.1 °C 1007.3 hPa ENE 12.9 km/h 20.9 km/h 66 % 0 mm
19:13 30.1 °C 23.3 °C 1007.3 hPa NW 8 km/h 20.9 km/h 67 % 0 mm
19:14 29.8 °C 23.3 °C 1007.3 hPa NW 16.1 km/h 20.9 km/h 68 % 0 mm
19:15 29.4 °C 23.1 °C 1007.3 hPa NNW 6.4 km/h 20.9 km/h 69 % 0 mm
19:16 29.1 °C 23.3 °C 1007.3 hPa NW 3.2 km/h 29 km/h 71 % 0 mm
19:17 28.8 °C 23.5 °C 1007.3 hPa North 4.8 km/h 29 km/h 73 % 0 mm
19:18 28.6 °C 23.3 °C 1007.3 hPa NNW 3.2 km/h 29 km/h 73 % 0 mm
19:19 28.2 °C 23.3 °C 1007.3 hPa NNW 1.6 km/h 29 km/h 75 % 0 mm
19:20 27.9 °C 23.3 °C 1007.3 hPa WNW 6.4 km/h 29 km/h 76 % 0 mm
19:21 27.6 °C 23 °C 1007.3 hPa NNW 4.8 km/h 29 km/h 76 % 0.76 mm
19:22 27.2 °C 22.8 °C 1007.3 hPa NNW 6.4 km/h 29 km/h 77 % 0.76 mm
19:23 26.9 °C 22.7 °C 1007.3 hPa NW 6.4 km/h 29 km/h 78 % 0.76 mm
19:24 26.6 °C 22.7 °C 1007.3 hPa NW 4.8 km/h 29 km/h 79 % 0.76 mm
19:25 26.4 °C 22.7 °C 1007.3 hPa WNW 1.6 km/h 29 km/h 80 % 0.76 mm
19:26 26.2 °C 22.5 °C 1007.3 hPa NW 3.2 km/h 29 km/h 80 % 0.76 mm
19:27 25.9 °C 22.4 °C 1007.3 hPa NNW 3.2 km/h 29 km/h 81 % 0.76 mm
19:28 25.8 °C 22.5 °C 1007.3 hPa WNW 1.6 km/h 29 km/h 82 % 0.76 mm
19:29 25.7 °C 22.6 °C 1007.3 hPa NNW 3.2 km/h 29 km/h 83 % 0.76 mm
19:30 25.6 °C 22.5 °C 1007.3 hPa ESE 6.4 km/h 29 km/h 83 % 0.76 mm
19:31 25.5 °C 22.6 °C 1007.7 hPa West 11.3 km/h 14.5 km/h 84 % 1.02 mm
19:32 27.3 °C 22.9 °C 1007.3 hPa NE 3.2 km/h 29 km/h 77 % 0.76 mm
19:33 25.3 °C 22.8 °C 1007.7 hPa NW 1.6 km/h 14.5 km/h 86 % 1.02 mm
19:34 25.1 °C 22.8 °C 1007.3 hPa NW 3.2 km/h 14.5 km/h 87 % 1.02 mm
19:35 25.1 °C 22.8 °C 1007.3 hPa NW 6.4 km/h 14.5 km/h 87 % 1.02 mm
19:36 24.8 °C 22.7 °C 1007.3 hPa NW 8 km/h 14.5 km/h 88 % 2.79 mm
19:37 26 °C 22.5 °C 1007.3 hPa NNW 1.6 km/h 29 km/h 81 % 0.76 mm
19:38 24.7 °C 22.6 °C 1007.3 hPa WNW 3.2 km/h 14.5 km/h 88 % 2.79 mm
19:39 24.6 °C 22.7 °C 1007.3 hPa NNW 1.6 km/h 14.5 km/h 89 % 2.79 mm
19:40 24.6 °C 22.7 °C 1007.3 hPa North 4.8 km/h 12.9 km/h 89 % 3.56 mm
19:42 25.4 °C 22.7 °C 1007.7 hPa ENE 8 km/h 14.5 km/h 85 % 1.02 mm
19:47 24.8 °C 22.7 °C 1007.3 hPa NNW 4.8 km/h 14.5 km/h 88 % 2.79 mm
19:52 24.5 °C 22.6 °C 1007.3 hPa NNW 3.2 km/h 12.9 km/h 89 % 3.56 mm
19:57 24.4 °C 22.8 °C 1007.3 hPa North 3.2 km/h 12.9 km/h 91 % 3.56 mm
20:02 24.4 °C 22.8 °C 1007.3 hPa Calm   12.9 km/h 91 % 3.56 mm
20:07 24.3 °C 22.7 °C 1007.3 hPa Calm   8 km/h 91 % 3.56 mm
20:12 24.3 °C 22.9 °C 1007.3 hPa Calm   4.8 km/h 92 % 3.56 mm
20:17 24.3 °C 22.9 °C 1007.3 hPa Calm   3.2 km/h 92 % 3.56 mm
20:22 24.3 °C 23.1 °C 1007.7 hPa Calm   3.2 km/h 93 % 3.56 mm
20:27 24.3 °C 23.1 °C 1007.7 hPa Calm   3.2 km/h 93 % 3.3 mm
20:32 24.2 °C 23 °C 1007.7 hPa Calm   3.2 km/h 93 % 2.79 mm
20:37 24.2 °C 23 °C 1008 hPa Calm   1.6 km/h 93 % 2.79 mm
20:42 24.2 °C 23.2 °C 1008 hPa Calm   1.6 km/h 94 % 2.54 mm
20:47 24.1 °C 23.1 °C 1008 hPa Calm   1.6 km/h 94 % 0.76 mm
20:52 24.1 °C 23.1 °C 1008 hPa Calm   3.2 km/h 94 % 0 mm
20:57 24 °C 23 °C 1008 hPa Calm   3.2 km/h 94 % 0 mm
21:02 24 °C 23 °C 1008 hPa Calm   3.2 km/h 94 % 0 mm
21:07 23.9 °C 22.9 °C 1008 hPa Calm   1.6 km/h 94 % 0 mm
21:12 24 °C 23.1 °C 1008 hPa Calm   1.6 km/h 95 % 0 mm
21:17 24 °C 23.1 °C 1008 hPa Calm   1.6 km/h 95 % 0 mm
21:22 23.9 °C 23 °C 1008.4 hPa Calm   1.6 km/h 95 % 0 mm
21:27 23.9 °C 23 °C 1008.4 hPa Calm   1.6 km/h 95 % 0 mm
21:32 23.9 °C 23 °C 1008.4 hPa Calm   1.6 km/h 95 % 0 mm
21:41 23.9 °C 23 °C 1008.4 hPa NNE 1.6 km/h 1.6 km/h 95 % 0 mm
21:46 23.8 °C 22.9 °C 1008.4 hPa Calm   1.6 km/h 95 % 0 mm
21:51 23.9 °C 23 °C 1008.4 hPa Calm   1.6 km/h 95 % 0 mm
21:56 23.9 °C 23 °C 1008.4 hPa Calm   1.6 km/h 95 % 0 mm
22:01 23.8 °C 22.9 °C 1008.7 hPa Calm   1.6 km/h 95 % 0 mm
22:06 23.8 °C 22.9 °C 1008.7 hPa Calm   1.6 km/h 95 % 0 mm
22:11 23.8 °C 22.9 °C 1008.7 hPa Calm   1.6 km/h 95 % 0 mm
22:17 23.8 °C 22.9 °C 1008.7 hPa Calm   1.6 km/h 95 % 0 mm
22:22 23.7 °C 22.9 °C 1008.7 hPa Calm   1.6 km/h 95 % 0 mm
22:27 23.7 °C 22.9 °C 1009 hPa Calm   1.6 km/h 95 % 0 mm
22:32 23.6 °C 22.8 °C 1009 hPa Calm   1.6 km/h 95 % 0 mm
22:37 23.6 °C 22.8 °C 1009 hPa Calm   1.6 km/h 95 % 0 mm
22:42 23.6 °C 22.8 °C 1009 hPa Calm   1.6 km/h 95 % 0 mm
22:47 23.6 °C 22.8 °C 1009 hPa Calm   1.6 km/h 95 % 0 mm
22:52 23.6 °C 22.8 °C 1009 hPa Calm   1.6 km/h 95 % 0 mm
22:57 23.5 °C 22.7 °C 1009 hPa Calm   1.6 km/h 95 % 0 mm
23:02 23.4 °C 22.7 °C 1009 hPa Calm   1.6 km/h 96 % 0 mm
23:07 23.5 °C 22.8 °C 1009 hPa Calm   1.6 km/h 96 % 0 mm
23:12 23.4 °C 22.6 °C 1009.4 hPa Calm   1.6 km/h 95 % 0 mm
23:17 23.4 °C 22.6 °C 1009 hPa Calm   1.6 km/h 95 % 0 mm
23:22 23.4 °C 22.6 °C 1009.4 hPa Calm   1.6 km/h 95 % 0 mm
23:27 23.3 °C 22.5 °C 1009.4 hPa Calm   1.6 km/h 95 % 0 mm
23:32 23.3 °C 22.6 °C 1009 hPa Calm   1.6 km/h 96 % 0 mm
23:37 23.3 °C 22.5 °C 1009.4 hPa Calm   1.6 km/h 95 % 0 mm
23:42 23.2 °C 22.4 °C 1009.4 hPa Calm     95 % 0 mm
23:47 23.1 °C 22.4 °C 1009.4 hPa Calm     96 % 0 mm
23:52 23.1 °C 22.4 °C 1009.4 hPa Calm   1.6 km/h 96 % 0 mm
23:57 23.1 °C 22.4 °C 1009.4 hPa Calm   1.6 km/h 96 % 0 mm
Spring, Texas: Villages of Bridgestone
Compliments of Weather Underground - 3 mb

Script developed by  Jim McMurry - jmcmurry@mwt.net Adapted for the template by  Wim van der Kuil - Leuven-Template.eu

You find our weather info also at:

UK Metoffice

WeatherCloud

Weather Underground

Mid-South Weather Network

AWEKAS

Citizen Weather Observer Program (CWOP)

HAMweather, WeatherForYou, PWS Weather

Equipment we use:

Weather-station
Davis Vantage Vue

Weather-program
Meteohub

Weather-server
Debian 7.9 x86 (Guest)

Provider
DreamHost

Davis Vantage Vue

Meteohub

Debian 7.9 x86 (Guest)

DreamHost